Time;durP1;ratioP1;P1;durP2;ratioP2;P2;SDS_P1;SDS_P2;PMS_P1;PMS_P2;Temp;Humidity;BMP_temperature;BMP_pressure;BME280_temperature;BME280_humidity;BME280_pressure;Samples;Min_cycle;Max_cycle;Signal;HPM_P1;HPM_P2
2022/07/26 00:01:01;;;;;;;4.03;3.42;;;31.90;99.90;;;;;;6236061;23;20180;-94
2022/07/26 00:03:39;;;;;;;6.88;3.72;;;31.90;99.90;;;;;;6237814;22;21169;-94
2022/07/26 00:06:18;;;;;;;37.05;33.10;;;32.20;99.90;;;;;;6266337;23;20175;-94
2022/07/26 00:08:55;;;;;;;22.55;20.20;;;32.40;99.90;;;;;;6266029;23;20176;-94
2022/07/26 00:11:32;;;;;;;6.72;4.28;;;32.40;99.90;;;;;;6264218;23;20174;-94
2022/07/26 00:17:05;;;;;;;3.60;3.30;;;33.00;99.90;;;;;;6259134;23;20185;-95
2022/07/26 00:19:41;;;;;;;4.65;3.10;;;33.00;99.90;;;;;;6257557;23;20231;-95
2022/07/26 00:25:00;;;;;;;3.85;2.90;;;33.20;99.90;;;;;;6250982;23;20207;-94
2022/07/26 00:27:31;;;;;;;3.50;3.00;;;33.10;99.90;;;;;;6250593;23;20164;-96
2022/07/26 00:30:04;;;;;;;4.78;3.35;;;33.20;99.90;;;;;;6251814;23;20469;-95
2022/07/26 00:32:35;;;;;;;3.25;2.90;;;33.10;99.90;;;;;;6250636;23;20183;-95
2022/07/26 00:35:11;;;;;;;5.40;3.15;;;33.10;99.90;;;;;;6251020;23;20183;-94
2022/07/26 00:37:45;;;;;;;7.88;3.08;;;33.20;99.90;;;;;;6255772;22;20167;-95
2022/07/26 00:40:17;;;;;;;3.40;3.10;;;33.10;99.90;;;;;;6252069;23;20238;-95
2022/07/26 00:42:52;;;;;;;3.70;2.67;;;33.00;99.90;;;;;;6253705;23;20190;-95
2022/07/26 00:45:34;;;;;;;3.47;3.17;;;33.00;99.90;;;;;;6251651;23;20180;-95
2022/07/26 00:48:06;;;;;;;5.97;3.22;;;33.00;99.90;;;;;;6252346;23;20228;-95
2022/07/26 00:50:40;;;;;;;2.83;2.60;;;33.00;99.90;;;;;;6259494;23;20269;-95
2022/07/26 00:53:14;;;;;;;3.15;2.72;;;32.90;99.90;;;;;;6254038;23;20221;-95
2022/07/26 00:55:45;;;;;;;7.13;3.05;;;33.00;99.90;;;;;;6227930;23;20202;-95
2022/07/26 00:58:16;;;;;;;3.70;2.65;;;33.00;99.90;;;;;;6252695;23;20184;-95
2022/07/26 01:00:48;;;;;;;5.68;3.17;;;33.00;99.90;;;;;;6251982;23;20234;-92
2022/07/26 01:03:20;;;;;;;3.60;3.10;;;33.10;99.90;;;;;;6227832;23;20180;-94
2022/07/26 01:05:53;;;;;;;4.55;3.10;;;33.00;99.90;;;;;;6252459;23;20239;-94
2022/07/26 01:08:24;;;;;;;6.32;3.10;;;33.10;99.90;;;;;;6253535;23;20168;-93
2022/07/26 01:10:56;;;;;;;5.15;3.10;;;33.50;99.90;;;;;;6264798;23;20176;-94
2022/07/26 01:13:28;;;;;;;3.45;2.75;;;33.50;99.90;;;;;;6272629;22;20160;-94
2022/07/26 01:16:04;;;;;;;3.80;2.90;;;33.90;99.90;;;;;;6248856;22;20159;-94
2022/07/26 01:18:36;;;;;;;3.50;3.20;;;33.60;99.90;;;;;;6273069;22;20196;-93
2022/07/26 01:21:11;;;;;;;3.60;3.00;;;33.60;99.90;;;;;;6247502;23;20167;-94
2022/07/26 01:23:45;;;;;;;3.45;3.10;;;34.20;99.90;;;;;;6273326;22;20194;-94
2022/07/26 01:26:17;;;;;;;3.88;3.20;;;34.60;99.90;;;;;;6273350;22;20168;-93
2022/07/26 01:28:49;;;;;;;5.55;3.38;;;35.00;99.90;;;;;;6273118;22;20191;-94
2022/07/26 01:31:20;;;;;;;4.78;3.00;;;35.30;99.90;;;;;;6271225;23;20297;-94
2022/07/26 01:33:52;;;;;;;4.40;3.50;;;35.60;99.90;;;;;;6261125;22;20172;-95
2022/07/26 01:36:23;;;;;;;5.22;3.22;;;35.10;99.90;;;;;;6256653;23;20176;-94
2022/07/26 01:38:57;;;;;;;5.65;3.30;;;35.10;99.90;;;;;;6230457;23;20238;-95
2022/07/26 01:41:28;;;;;;;4.43;3.30;;;35.10;99.90;;;;;;6255332;23;20186;-94
2022/07/26 01:44:08;;;;;;;4.13;2.55;;;35.30;99.60;;;;;;6255674;23;20198;-94
2022/07/26 01:46:40;;;;;;;4.07;3.08;;;35.30;99.90;;;;;;6257563;23;20176;-95
2022/07/26 01:49:11;;;;;;;3.85;3.42;;;35.40;99.50;;;;;;6256506;23;20176;-93
2022/07/26 01:51:44;;;;;;;5.85;3.38;;;35.50;99.80;;;;;;6258533;23;20182;-93
2022/07/26 01:54:17;;;;;;;8.07;3.15;;;35.50;99.10;;;;;;6264324;23;20217;-93
2022/07/26 01:56:53;;;;;;;4.10;3.45;;;35.00;99.90;;;;;;6267127;23;20175;-94
2022/07/26 01:59:25;;;;;;;6.63;3.30;;;34.90;99.90;;;;;;6259565;22;20176;-93
2022/07/26 02:01:56;;;;;;;4.15;3.17;;;34.60;99.90;;;;;;6256248;23;20176;-93
2022/07/26 02:07:18;;;;;;;4.72;2.90;;;34.50;99.90;;;;;;6263806;22;20163;-93
2022/07/26 02:09:52;;;;;;;5.72;3.20;;;34.10;99.70;;;;;;6257205;23;20166;-94
2022/07/26 02:12:24;;;;;;;5.43;3.28;;;33.70;99.70;;;;;;6256602;23;20174;-94
2022/07/26 02:14:56;;;;;;;4.00;2.90;;;33.10;99.80;;;;;;6254307;23;20164;-94
2022/07/26 02:17:27;;;;;;;7.35;3.28;;;32.40;99.20;;;;;;6253593;23;20183;-95
2022/07/26 02:20:00;;;;;;;4.05;2.95;;;32.00;99.90;;;;;;6254914;23;20666;-96
2022/07/26 02:22:31;;;;;;;5.45;2.83;;;31.40;99.90;;;;;;6253485;23;20183;-95
2022/07/26 02:25:20;;;;;;;3.42;3.13;;;30.80;99.90;;;;;;6252944;23;20537;-95
2022/07/26 02:27:51;;;;;;;3.08;2.70;;;30.50;99.90;;;;;;6253948;23;20213;-94
2022/07/26 02:30:23;;;;;;;4.72;2.90;;;30.30;99.90;;;;;;6251887;23;20176;-95
2022/07/26 02:32:54;;;;;;;3.58;2.60;;;30.10;99.90;;;;;;6251977;23;20563;-95
2022/07/26 02:35:30;;;;;;;2.95;2.58;;;29.90;99.90;;;;;;6253400;23;20172;-95
2022/07/26 02:40:54;;;;;;;3.70;2.88;;;29.60;99.90;;;;;;6263717;23;20195;-96
2022/07/26 02:43:39;;;;;;;5.97;2.78;;;29.50;99.90;;;;;;6235871;23;20171;-95
2022/07/26 02:46:19;;;;;;;4.63;2.60;;;29.30;99.90;;;;;;6230055;23;20425;-95
2022/07/26 02:49:01;;;;;;;2.63;2.28;;;29.20;99.90;;;;;;6265831;23;20207;-96
2022/07/26 02:51:39;;;;;;;3.63;3.05;;;29.00;99.90;;;;;;6240229;23;20208;-95
2022/07/26 02:54:12;;;;;;;4.13;2.50;;;28.90;99.90;;;;;;6265958;23;20249;-95
2022/07/26 03:03:14;;;;;;;2.92;2.50;;;28.40;99.90;;;;;;6235781;22;20207;-96
2022/07/26 03:11:50;;;;;;;4.23;3.00;;;27.90;99.90;;;;;;6235211;23;20180;-95
2022/07/26 03:14:24;;;;;;;5.17;3.20;;;27.90;99.90;;;;;;6209030;23;20176;-96
2022/07/26 03:16:59;;;;;;;8.80;3.80;;;27.80;99.90;;;;;;6209572;23;20187;-96
2022/07/26 03:25:10;;;;;;;4.10;3.17;;;27.50;99.90;;;;;;6234506;23;20252;-95
2022/07/26 03:27:57;;;;;;;4.83;3.63;;;27.30;99.90;;;;;;6203525;23;20252;-95
2022/07/26 03:30:31;;;;;;;5.30;3.30;;;27.20;99.90;;;;;;6234720;22;20210;-95
2022/07/26 03:33:08;;;;;;;4.13;3.37;;;27.20;99.90;;;;;;6236399;23;20169;-94
2022/07/26 03:38:28;;;;;;;4.57;3.67;;;26.90;99.90;;;;;;6233799;23;20176;-95
2022/07/26 03:41:01;;;;;;;4.57;3.80;;;26.80;99.90;;;;;;6225652;23;20509;-95
2022/07/26 03:43:33;;;;;;;5.67;3.57;;;26.70;99.90;;;;;;6222303;23;20247;-96
2022/07/26 03:46:06;;;;;;;4.07;3.53;;;26.60;99.90;;;;;;6205085;23;20208;-96
2022/07/26 03:48:41;;;;;;;6.13;3.90;;;26.40;99.90;;;;;;6202710;23;20187;-95
2022/07/26 03:51:13;;;;;;;4.13;3.30;;;26.30;99.90;;;;;;6226568;23;20176;-95
2022/07/26 03:53:49;;;;;;;4.83;3.80;;;26.10;99.90;;;;;;6222657;23;20176;-96
2022/07/26 03:56:28;;;;;;;3.90;3.50;;;26.00;99.90;;;;;;6233167;23;20269;-96
2022/07/26 03:59:01;;;;;;;5.03;3.90;;;25.90;99.90;;;;;;6229117;23;20211;-96
2022/07/26 04:01:40;;;;;;;5.63;3.73;;;25.70;99.90;;;;;;6224256;23;20184;-95
2022/07/26 04:04:20;;;;;;;4.17;3.23;;;25.70;99.90;;;;;;6224315;23;20173;-95
2022/07/26 04:07:05;;;;;;;7.07;3.90;;;25.50;99.90;;;;;;6235744;23;20279;-95
2022/07/26 04:09:40;;;;;;;6.57;3.70;;;25.40;99.90;;;;;;6234716;23;20207;-96
2022/07/26 04:12:20;;;;;;;4.90;3.67;;;25.30;99.90;;;;;;6204524;23;20187;-96
2022/07/26 04:14:56;;;;;;;4.50;3.67;;;25.20;99.90;;;;;;6208843;23;20207;-96
2022/07/26 04:20:12;;;;;;;3.90;3.50;;;25.00;99.90;;;;;;6290369;22;20612;-95
2022/07/26 04:22:48;;;;;;;5.27;3.90;;;24.90;99.90;;;;;;6281659;22;20229;-95
2022/07/26 04:25:21;;;;;;;5.17;4.07;;;24.80;99.90;;;;;;6281799;22;20659;-94
2022/07/26 04:27:53;;;;;;;4.00;3.50;;;24.70;99.90;;;;;;6282696;22;20174;-95
2022/07/26 04:30:24;;;;;;;4.87;3.83;;;24.60;99.90;;;;;;6282538;22;20171;-96
2022/07/26 04:32:58;;;;;;;4.73;3.70;;;24.50;99.90;;;;;;6257737;22;20190;-95
2022/07/26 04:35:31;;;;;;;5.07;3.83;;;24.50;99.90;;;;;;6283544;22;20175;-95
2022/07/26 04:38:03;;;;;;;7.07;4.10;;;24.40;99.90;;;;;;6282956;22;20172;-95
2022/07/26 04:40:34;;;;;;;4.27;3.67;;;24.30;99.90;;;;;;6282911;22;20171;-95
2022/07/26 04:43:10;;;;;;;4.90;3.60;;;24.30;99.90;;;;;;6257750;22;20197;-96
2022/07/26 04:45:46;;;;;;;4.20;3.80;;;24.20;99.90;;;;;;6285441;22;20199;-95
2022/07/26 04:48:18;;;;;;;5.77;3.77;;;24.10;99.90;;;;;;6294941;22;20223;-96
2022/07/26 04:50:51;;;;;;;7.37;4.07;;;24.10;99.90;;;;;;6303114;22;20185;-96
2022/07/26 04:53:22;;;;;;;6.80;4.03;;;24.00;99.90;;;;;;6303837;22;20224;-96
2022/07/26 04:58:51;;;;;;;4.90;3.67;;;23.80;99.90;;;;;;6292116;22;20246;-95
2022/07/26 05:01:22;;;;;;;6.27;3.83;;;23.80;99.90;;;;;;6292821;22;20174;-95
2022/07/26 05:03:54;;;;;;;5.70;3.83;;;23.80;99.90;;;;;;6288055;22;20172;-96
2022/07/26 05:06:28;;;;;;;4.87;3.50;;;23.70;99.90;;;;;;6289609;22;20203;-96
2022/07/26 05:09:00;;;;;;;4.50;3.33;;;23.70;99.90;;;;;;6288934;22;20159;-96
2022/07/26 05:11:31;;;;;;;3.83;3.53;;;23.60;99.90;;;;;;6283409;22;20205;-96
2022/07/26 05:14:03;;;;;;;7.73;3.60;;;23.60;99.90;;;;;;6285786;22;20175;-95
2022/07/26 05:16:34;;;;;;;5.37;3.70;;;23.50;99.90;;;;;;6287729;22;20679;-95
2022/07/26 05:19:15;;;;;;;5.60;3.67;;;23.40;99.90;;;;;;6285284;22;20183;-96
2022/07/26 05:21:50;;;;;;;8.73;4.10;;;23.40;99.90;;;;;;6283974;22;20179;-96
2022/07/26 05:24:21;;;;;;;4.27;3.30;;;23.30;99.90;;;;;;6282737;22;20182;-95
2022/07/26 05:26:53;;;;;;;3.90;3.43;;;23.20;99.90;;;;;;6282563;22;20203;-95
2022/07/26 05:29:27;;;;;;;3.50;3.20;;;23.20;99.90;;;;;;6283158;22;20247;-95
2022/07/26 05:31:59;;;;;;;4.53;3.53;;;23.20;99.90;;;;;;6289227;22;20209;-94
2022/07/26 05:34:30;;;;;;;5.77;3.63;;;23.20;99.90;;;;;;6282570;22;20554;-96
2022/07/26 05:37:06;;;;;;;4.63;3.53;;;23.20;99.90;;;;;;6264189;22;20228;-95
2022/07/26 05:39:38;;;;;;;5.17;3.63;;;23.10;99.90;;;;;;6289546;22;20214;-95
2022/07/26 05:42:10;;;;;;;5.43;3.50;;;23.10;99.90;;;;;;6285072;22;20209;-95
2022/07/26 05:44:41;;;;;;;4.30;3.70;;;23.00;99.90;;;;;;6285016;22;20251;-95
2022/07/26 05:50:00;;;;;;;5.23;3.67;;;22.90;99.90;;;;;;6285190;22;20185;-95
2022/07/26 05:52:34;;;;;;;5.07;3.77;;;22.80;99.90;;;;;;6282861;22;20179;-96
2022/07/26 05:55:06;;;;;;;4.70;3.60;;;22.70;99.90;;;;;;6282476;22;20225;-96
2022/07/26 05:57:40;;;;;;;4.97;3.80;;;22.60;99.90;;;;;;6282154;22;20190;-95
2022/07/26 06:00:12;;;;;;;7.67;3.77;;;22.60;99.90;;;;;;6282067;22;20178;-96
2022/07/26 06:02:43;;;;;;;4.77;4.10;;;22.50;99.90;;;;;;6282228;22;20163;-96
2022/07/26 06:05:15;;;;;;;6.83;4.07;;;22.40;99.90;;;;;;6281814;22;20205;-95
2022/07/26 06:07:49;;;;;;;5.03;3.67;;;22.40;99.90;;;;;;6285613;22;20264;-95
2022/07/26 06:10:21;;;;;;;5.47;3.80;;;22.30;99.90;;;;;;6284346;22;20181;-96
2022/07/26 06:12:52;;;;;;;5.20;4.03;;;22.30;99.90;;;;;;6281897;22;20509;-96
2022/07/26 06:15:24;;;;;;;4.53;3.63;;;22.30;99.90;;;;;;6231990;22;20179;-96
2022/07/26 06:17:56;;;;;;;5.67;4.10;;;22.30;99.90;;;;;;6282016;22;20230;-96
2022/07/26 06:20:28;;;;;;;6.00;3.67;;;22.20;99.90;;;;;;6282005;22;20163;-95
2022/07/26 06:23:01;;;;;;;4.70;3.60;;;22.20;99.90;;;;;;6282143;22;20621;-95
2022/07/26 06:25:33;;;;;;;3.67;3.37;;;22.20;99.90;;;;;;6282428;22;20175;-95
2022/07/26 06:28:06;;;;;;;4.17;3.50;;;22.20;99.90;;;;;;6283267;22;20199;-95
2022/07/26 06:30:39;;;;;;;5.77;3.60;;;22.20;99.90;;;;;;6257223;22;20213;-95
2022/07/26 06:33:10;;;;;;;4.10;3.33;;;22.20;99.90;;;;;;6284829;22;20194;-95
2022/07/26 06:35:41;;;;;;;6.03;3.80;;;22.20;99.90;;;;;;6285628;22;20171;-95
2022/07/26 06:38:27;;;;;;;5.13;3.60;;;22.10;99.90;;;;;;6286345;22;20182;-95
2022/07/26 06:41:01;;;;;;;4.10;3.70;;;22.10;99.90;;;;;;6283420;22;20187;-94
2022/07/26 06:43:32;;;;;;;7.20;4.03;;;22.10;99.90;;;;;;6288368;22;20179;-94
2022/07/26 06:46:04;;;;;;;7.20;3.60;;;22.00;99.90;;;;;;6287189;22;20171;-94
2022/07/26 06:48:37;;;;;;;6.83;3.80;;;22.00;99.90;;;;;;6286077;22;20174;-94
2022/07/26 06:51:16;;;;;;;4.50;4.10;;;22.00;99.90;;;;;;6257706;22;20244;-95
2022/07/26 06:53:49;;;;;;;6.27;4.40;;;22.00;99.90;;;;;;6284654;22;20183;-94
2022/07/26 06:56:22;;;;;;;4.53;3.60;;;21.90;99.90;;;;;;6291153;22;20155;-93
2022/07/26 06:58:55;;;;;;;4.47;3.47;;;21.80;99.90;;;;;;6296042;22;20241;-94
2022/07/26 07:01:27;;;;;;;6.93;4.20;;;21.80;99.90;;;;;;6297969;22;20171;-94
2022/07/26 07:04:18;;;;;;;5.20;3.80;;;21.80;99.90;;;;;;6301995;22;20179;-94
2022/07/26 07:06:53;;;;;;;4.43;3.47;;;21.70;99.90;;;;;;6301666;22;20199;-94
2022/07/26 07:09:28;;;;;;;4.93;3.73;;;21.70;99.90;;;;;;6292230;22;20177;-94
2022/07/26 07:12:01;;;;;;;4.47;3.70;;;21.60;99.90;;;;;;6286987;22;20201;-94
2022/07/26 07:14:39;;;;;;;4.50;3.20;;;21.60;99.90;;;;;;6287059;22;20190;-94
2022/07/26 07:17:11;;;;;;;5.13;3.50;;;21.50;99.90;;;;;;6285636;22;20175;-94
2022/07/26 07:19:49;;;;;;;6.13;3.53;;;21.40;99.90;;;;;;6281086;22;20239;-94
2022/07/26 07:22:20;;;;;;;5.30;3.47;;;21.40;99.90;;;;;;6280678;22;20484;-95
2022/07/26 07:24:54;;;;;;;3.67;3.37;;;21.30;99.90;;;;;;6283611;22;20221;-95
2022/07/26 07:27:26;;;;;;;4.17;3.13;;;21.30;99.90;;;;;;6283316;22;20199;-94
2022/07/26 07:29:58;;;;;;;4.73;4.23;;;21.20;99.90;;;;;;6281793;22;20182;-94
2022/07/26 07:32:31;;;;;;;6.23;4.27;;;21.20;99.90;;;;;;6270526;22;20203;-94
2022/07/26 07:35:04;;;;;;;4.43;4.03;;;21.20;99.90;;;;;;6222402;23;20231;-94
2022/07/26 07:37:42;;;;;;;4.10;3.40;;;21.10;99.90;;;;;;6220387;23;20179;-95
2022/07/26 07:40:25;;;;;;;5.43;3.80;;;21.10;99.90;;;;;;6219464;23;20267;-94
2022/07/26 07:42:59;;;;;;;5.80;3.57;;;21.10;99.90;;;;;;6220156;23;20178;-95
2022/07/26 07:45:31;;;;;;;7.70;3.60;;;21.00;99.90;;;;;;6222050;23;20671;-95
2022/07/26 07:48:02;;;;;;;4.43;4.03;;;21.00;99.90;;;;;;6221744;23;20204;-94
2022/07/26 07:50:34;;;;;;;4.33;3.93;;;21.00;99.90;;;;;;6219624;23;20235;-94
2022/07/26 07:53:06;;;;;;;4.33;3.30;;;20.90;99.90;;;;;;6218588;23;20173;-94
2022/07/26 07:55:41;;;;;;;4.97;3.23;;;20.90;99.90;;;;;;6219443;23;20191;-94
2022/07/26 07:58:16;;;;;;;6.93;4.10;;;20.90;99.90;;;;;;6218859;23;20172;-95
2022/07/26 08:00:48;;;;;;;3.40;3.10;;;20.80;99.90;;;;;;6217716;23;20264;-95
2022/07/26 08:03:20;;;;;;;3.97;3.60;;;20.80;99.90;;;;;;6218916;23;20180;-95
2022/07/26 08:05:51;;;;;;;6.60;3.73;;;20.80;99.90;;;;;;6219196;23;20176;-95
2022/07/26 08:08:22;;;;;;;3.60;3.30;;;20.70;99.90;;;;;;6219521;23;20192;-95
2022/07/26 08:10:57;;;;;;;5.77;3.87;;;20.70;99.90;;;;;;6219966;23;20180;-96
2022/07/26 08:13:28;;;;;;;4.00;3.60;;;20.60;99.90;;;;;;6222000;23;20188;-94
2022/07/26 08:16:01;;;;;;;4.87;3.50;;;20.60;99.90;;;;;;6220097;23;20176;-93
2022/07/26 08:18:34;;;;;;;5.57;3.47;;;20.60;99.90;;;;;;6223460;22;20202;-93
2022/07/26 08:21:22;;;;;;;5.57;3.73;;;20.50;99.90;;;;;;6223588;23;20228;-95
2022/07/26 08:23:58;;;;;;;3.30;3.00;;;20.50;99.90;;;;;;6240609;22;20172;-95
2022/07/26 08:26:32;;;;;;;4.53;3.80;;;20.40;99.90;;;;;;6240783;22;20549;-94
2022/07/26 08:29:03;;;;;;;4.03;3.40;;;20.40;99.90;;;;;;6241003;22;20200;-95
2022/07/26 08:31:35;;;;;;;4.67;4.10;;;20.40;99.90;;;;;;6215007;23;20175;-95
2022/07/26 08:34:06;;;;;;;6.90;5.33;;;20.30;99.90;;;;;;6241320;22;20183;-94
2022/07/26 08:36:39;;;;;;;5.07;3.83;;;20.30;99.90;;;;;;6240594;22;20174;-94
2022/07/26 08:39:30;;;;;;;4.30;3.50;;;20.30;99.90;;;;;;6241123;23;20180;-95
2022/07/26 08:42:04;;;;;;;4.43;3.70;;;20.30;99.90;;;;;;6240132;23;20164;-94
2022/07/26 08:44:36;;;;;;;4.37;3.73;;;20.30;99.90;;;;;;6237547;23;20176;-94
2022/07/26 08:47:08;;;;;;;5.50;3.90;;;20.20;99.90;;;;;;6223018;23;20172;-94
2022/07/26 08:49:40;;;;;;;8.23;3.87;;;20.20;99.90;;;;;;6223207;23;20523;-94
2022/07/26 08:52:12;;;;;;;4.90;3.57;;;20.20;99.90;;;;;;6221273;23;20181;-93
2022/07/26 08:54:45;;;;;;;4.33;3.33;;;20.20;99.90;;;;;;6195726;23;20234;-93
2022/07/26 08:57:19;;;;;;;5.20;3.40;;;20.10;99.90;;;;;;6222532;23;20236;-94
2022/07/26 09:00:21;;;;;;;4.30;3.40;;;20.10;99.90;;;;;;6219030;23;20188;-94
2022/07/26 09:02:52;;;;;;;4.63;3.73;;;20.20;99.90;;;;;;6221906;22;20272;-95
2022/07/26 09:05:30;;;;;;;4.00;3.60;;;20.10;99.90;;;;;;6196549;23;20206;-94
2022/07/26 09:08:22;;;;;;;4.07;3.73;;;20.00;99.90;;;;;;6192801;23;20220;-95
2022/07/26 09:10:54;;;;;;;4.50;3.50;;;20.00;99.90;;;;;;6195405;23;20207;-95
2022/07/26 09:13:28;;;;;;;3.70;3.40;;;20.00;99.90;;;;;;6224651;23;20670;-94
2022/07/26 09:16:11;;;;;;;4.73;3.77;;;20.00;99.90;;;;;;6223025;23;20176;-95
2022/07/26 09:18:42;;;;;;;4.60;3.93;;;19.90;99.90;;;;;;6220649;23;20255;-94
2022/07/26 09:21:31;;;;;;;4.13;3.53;;;19.90;99.90;;;;;;6222420;23;20223;-95
2022/07/26 09:24:03;;;;;;;4.53;3.77;;;20.00;99.90;;;;;;6225989;22;20177;-95
2022/07/26 09:26:34;;;;;;;4.93;3.90;;;20.00;99.90;;;;;;6225323;23;20164;-95
2022/07/26 09:29:09;;;;;;;4.00;3.60;;;19.90;99.90;;;;;;6223611;23;20211;-95
2022/07/26 09:31:43;;;;;;;4.67;3.77;;;19.90;99.90;;;;;;6220139;23;20187;-95
2022/07/26 09:34:24;;;;;;;4.97;3.67;;;19.90;99.90;;;;;;6226753;22;20183;-93
2022/07/26 09:36:57;;;;;;;4.03;3.67;;;19.80;99.90;;;;;;6224044;22;20188;-95
2022/07/26 09:39:28;;;;;;;5.67;4.17;;;19.70;99.90;;;;;;6223841;23;20187;-94
2022/07/26 09:42:09;;;;;;;4.37;3.97;;;19.70;99.90;;;;;;6219635;23;20180;-94
2022/07/26 09:45:01;;;;;;;4.83;4.27;;;19.70;99.90;;;;;;6225086;23;20190;-95
2022/07/26 09:47:39;;;;;;;5.70;4.20;;;19.60;99.90;;;;;;6223109;23;20180;-94
2022/07/26 09:50:15;;;;;;;5.20;4.30;;;19.60;99.90;;;;;;6225045;23;20167;-94
2022/07/26 09:53:10;;;;;;;6.67;4.33;;;19.60;99.90;;;;;;6223805;22;20244;-94
2022/07/26 09:55:57;;;;;;;5.30;4.77;;;19.60;99.90;;;;;;6221271;23;20207;-94
2022/07/26 09:58:28;;;;;;;5.37;4.47;;;19.60;99.90;;;;;;6224329;23;20234;-94
2022/07/26 10:01:03;;;;;;;7.33;4.80;;;19.50;99.90;;;;;;6196769;23;20235;-94
2022/07/26 10:03:35;;;;;;;7.33;4.47;;;19.50;99.90;;;;;;6227140;23;20191;-93
2022/07/26 10:06:09;;;;;;;7.20;4.50;;;19.50;99.90;;;;;;6223590;23;20175;-94
2022/07/26 10:08:42;;;;;;;7.63;4.50;;;19.50;99.90;;;;;;6221329;23;20207;-94
2022/07/26 10:11:16;;;;;;;5.60;4.50;;;19.40;99.90;;;;;;6222201;23;20199;-94
2022/07/26 10:13:49;;;;;;;5.77;4.37;;;19.40;99.90;;;;;;6201287;23;20171;-94
2022/07/26 10:16:33;;;;;;;4.53;3.97;;;19.40;99.90;;;;;;6240400;22;20177;-93
2022/07/26 10:19:07;;;;;;;4.90;4.27;;;19.40;99.90;;;;;;6242469;22;20156;-94
2022/07/26 10:21:39;;;;;;;4.50;4.10;;;19.30;99.90;;;;;;6241435;22;20202;-93
2022/07/26 10:24:27;;;;;;;5.00;4.50;;;19.30;99.90;;;;;;6239929;23;20171;-95
2022/07/26 10:26:58;;;;;;;6.30;4.47;;;19.30;99.90;;;;;;6223033;23;20180;-95
2022/07/26 10:29:30;;;;;;;5.33;4.83;;;19.30;99.90;;;;;;6220716;23;20712;-95
2022/07/26 10:32:19;;;;;;;5.93;4.50;;;19.20;99.90;;;;;;6221444;23;20172;-94
2022/07/26 10:34:50;;;;;;;5.53;4.53;;;19.20;99.90;;;;;;6223717;23;20708;-94
2022/07/26 10:37:28;;;;;;;7.63;4.33;;;19.20;99.90;;;;;;6220490;23;20247;-95
2022/07/26 10:40:21;;;;;;;5.30;4.90;;;19.20;99.90;;;;;;6220218;23;20188;-96
2022/07/26 10:42:53;;;;;;;5.17;4.77;;;19.20;99.90;;;;;;6220065;23;20176;-95
2022/07/26 10:45:24;;;;;;;5.30;4.80;;;19.20;99.90;;;;;;6219826;23;20177;-95
2022/07/26 10:48:18;;;;;;;4.87;4.47;;;19.20;99.90;;;;;;6193624;23;20177;-92
2022/07/26 10:50:52;;;;;;;5.20;4.70;;;19.10;99.90;;;;;;6219222;23;20221;-94
2022/07/26 10:53:26;;;;;;;5.30;4.30;;;19.10;99.90;;;;;;6220114;23;20183;-94
2022/07/26 10:56:00;;;;;;;10.33;5.07;;;19.10;99.90;;;;;;6220641;23;20187;-94
2022/07/26 10:58:44;;;;;;;5.37;4.40;;;19.10;99.90;;;;;;6220097;23;20275;-93
2022/07/26 11:01:15;;;;;;;5.70;5.10;;;19.00;99.90;;;;;;6218761;23;20180;-93
2022/07/26 11:03:49;;;;;;;5.80;5.10;;;19.00;99.90;;;;;;6219110;23;20192;-93
2022/07/26 11:06:21;;;;;;;5.07;4.30;;;19.00;99.90;;;;;;6219827;23;20169;-93
2022/07/26 11:08:54;;;;;;;5.87;5.37;;;18.90;99.90;;;;;;6219331;23;20254;-93
2022/07/26 11:11:31;;;;;;;5.00;4.50;;;18.90;99.90;;;;;;6218754;23;20226;-94
2022/07/26 11:14:10;;;;;;;5.03;4.60;;;18.90;99.90;;;;;;6219471;23;20176;-94
2022/07/26 11:16:44;;;;;;;5.47;4.63;;;18.90;99.90;;;;;;6222495;23;20249;-95
2022/07/26 11:19:19;;;;;;;5.37;4.83;;;18.90;99.90;;;;;;6227482;23;20207;-94
2022/07/26 11:21:57;;;;;;;5.33;4.83;;;18.90;99.90;;;;;;6219686;23;20179;-94
2022/07/26 11:24:30;;;;;;;5.50;4.67;;;18.90;99.90;;;;;;6220044;23;20180;-95
2022/07/26 11:27:05;;;;;;;5.57;4.73;;;18.80;99.90;;;;;;6224564;23;20177;-94
2022/07/26 11:29:37;;;;;;;6.10;4.70;;;18.80;99.90;;;;;;6221226;23;20207;-94
2022/07/26 11:32:19;;;;;;;5.77;4.87;;;18.70;99.90;;;;;;6217865;23;20187;-95
2022/07/26 11:35:02;;;;;;;5.23;4.80;;;18.60;99.90;;;;;;6219273;23;20236;-94
2022/07/26 11:37:34;;;;;;;5.43;4.93;;;18.60;99.90;;;;;;6223389;22;20222;-93
2022/07/26 11:40:06;;;;;;;5.80;5.20;;;18.60;99.90;;;;;;6220092;23;20176;-94
2022/07/26 11:42:40;;;;;;;7.87;5.07;;;18.50;99.90;;;;;;6219315;23;20240;-94
2022/07/26 11:45:12;;;;;;;4.97;4.47;;;18.50;99.90;;;;;;6222793;22;20177;-94
2022/07/26 11:47:44;;;;;;;5.30;4.80;;;18.50;99.90;;;;;;6219775;23;20647;-94
2022/07/26 11:50:20;;;;;;;5.20;4.70;;;18.50;99.90;;;;;;6218945;23;20259;-94
2022/07/26 11:52:53;;;;;;;7.30;4.53;;;18.50;99.90;;;;;;6193419;23;20418;-94
2022/07/26 11:55:28;;;;;;;5.60;5.10;;;18.40;99.90;;;;;;6220348;23;20199;-94
2022/07/26 11:58:06;;;;;;;7.80;4.87;;;18.40;99.90;;;;;;6219418;23;20177;-94
2022/07/26 12:00:39;;;;;;;5.80;4.73;;;18.30;99.90;;;;;;6192518;23;20176;-94
2022/07/26 12:03:10;;;;;;;6.37;4.73;;;18.30;99.90;;;;;;6219751;23;20176;-93
2022/07/26 12:05:43;;;;;;;6.67;5.60;;;18.30;99.90;;;;;;6194672;23;20178;-94
2022/07/26 12:08:14;;;;;;;5.40;4.90;;;18.30;99.90;;;;;;6222774;23;20176;-94
2022/07/26 12:10:54;;;;;;;5.53;4.63;;;18.20;99.90;;;;;;6230037;22;20204;-94
2022/07/26 12:13:25;;;;;;;5.50;4.90;;;18.20;99.90;;;;;;6241070;22;20168;-94
2022/07/26 12:16:35;;;;;;;5.63;5.07;;;18.20;99.90;;;;;;6239827;22;20198;-94
2022/07/26 12:19:08;;;;;;;6.87;4.70;;;18.20;99.90;;;;;;6224206;23;20176;-95
2022/07/26 12:21:49;;;;;;;8.80;4.73;;;18.20;99.90;;;;;;6195584;23;20176;-95
2022/07/26 12:24:35;;;;;;;5.43;4.80;;;18.10;99.90;;;;;;6222048;23;20183;-95
2022/07/26 12:27:09;;;;;;;5.63;5.07;;;18.10;99.90;;;;;;6219796;23;20180;-95
2022/07/26 12:29:41;;;;;;;5.97;5.07;;;18.10;99.90;;;;;;6218744;23;20250;-94
2022/07/26 12:32:16;;;;;;;5.20;4.73;;;18.20;99.90;;;;;;6220703;23;20242;-95
2022/07/26 12:34:58;;;;;;;5.80;5.30;;;18.20;99.90;;;;;;6219667;23;20191;-94
2022/07/26 12:37:33;;;;;;;5.83;5.23;;;18.10;99.90;;;;;;6218926;23;20230;-93
2022/07/26 12:40:12;;;;;;;6.07;5.30;;;18.10;99.90;;;;;;6221074;23;20172;-95
2022/07/26 12:42:45;;;;;;;5.93;5.03;;;18.10;99.90;;;;;;6219025;23;20192;-95
2022/07/26 12:45:17;;;;;;;6.37;5.77;;;18.00;99.90;;;;;;6219610;23;20176;-95
2022/07/26 12:47:51;;;;;;;5.90;5.40;;;18.00;99.90;;;;;;6221316;23;20184;-95
2022/07/26 12:50:27;;;;;;;7.00;4.93;;;18.00;99.90;;;;;;6225189;22;20204;-95
2022/07/26 12:53:04;;;;;;;7.73;5.33;;;18.00;99.90;;;;;;6225569;23;20179;-93
2022/07/26 12:55:38;;;;;;;6.13;5.53;;;18.00;99.90;;;;;;6221376;23;20185;-93
2022/07/26 12:58:09;;;;;;;9.73;5.73;;;18.00;99.90;;;;;;6223492;22;20177;-93
2022/07/26 13:00:41;;;;;;;8.47;5.90;;;17.90;99.90;;;;;;6223096;23;20176;-93
2022/07/26 13:03:12;;;;;;;6.10;5.60;;;17.90;99.90;;;;;;6222129;23;20165;-94
2022/07/26 13:05:44;;;;;;;6.10;5.10;;;17.90;99.90;;;;;;6221481;23;20195;-94
2022/07/26 13:08:17;;;;;;;6.10;5.50;;;17.90;99.90;;;;;;6226179;23;20228;-93
2022/07/26 13:10:49;;;;;;;6.20;5.63;;;17.90;99.90;;;;;;6222563;22;20663;-94
2022/07/26 13:13:27;;;;;;;5.93;5.23;;;17.90;99.90;;;;;;6225712;23;20176;-93
2022/07/26 13:15:59;;;;;;;6.03;5.30;;;17.90;99.90;;;;;;6225897;23;20160;-94
2022/07/26 13:18:34;;;;;;;8.13;5.60;;;18.00;99.90;;;;;;6220518;23;20642;-94
2022/07/26 13:21:07;;;;;;;8.70;5.53;;;18.00;99.90;;;;;;6220178;23;20176;-94
2022/07/26 13:23:42;;;;;;;6.63;6.03;;;18.00;99.90;;;;;;6223293;23;20199;-94
2022/07/26 13:26:18;;;;;;;6.27;5.57;;;18.00;99.90;;;;;;6220230;23;20176;-94
2022/07/26 13:28:51;;;;;;;6.23;5.20;;;18.10;99.90;;;;;;6220526;23;20180;-94
2022/07/26 13:31:22;;;;;;;5.43;5.03;;;18.10;99.90;;;;;;6219150;23;20200;-94
2022/07/26 13:33:53;;;;;;;6.10;5.50;;;18.10;99.90;;;;;;6219849;23;20714;-93
2022/07/26 13:36:24;;;;;;;6.23;5.63;;;18.10;99.90;;;;;;6220099;23;20206;-94
2022/07/26 13:38:58;;;;;;;6.73;5.33;;;18.20;99.90;;;;;;6220607;23;20176;-93
2022/07/26 13:41:30;;;;;;;6.83;5.80;;;18.20;99.90;;;;;;6219373;23;20283;-94
2022/07/26 13:44:06;;;;;;;6.30;5.37;;;18.20;99.90;;;;;;6220138;23;20254;-94
2022/07/26 13:46:40;;;;;;;10.40;5.73;;;18.30;99.90;;;;;;6221126;23;20251;-93
2022/07/26 13:49:11;;;;;;;5.50;5.00;;;18.30;99.90;;;;;;6219894;23;20180;-94
2022/07/26 13:51:59;;;;;;;6.77;6.00;;;18.30;99.90;;;;;;6220323;23;20200;-94
2022/07/26 13:54:35;;;;;;;8.03;6.30;;;18.40;99.90;;;;;;6219544;23;20686;-94
2022/07/26 13:57:07;;;;;;;8.80;5.87;;;18.40;99.90;;;;;;6225371;23;20176;-94
2022/07/26 13:59:38;;;;;;;6.87;6.00;;;18.40;99.90;;;;;;6221415;23;20235;-94
2022/07/26 14:02:10;;;;;;;6.60;5.70;;;18.60;99.90;;;;;;6219697;23;20548;-95
2022/07/26 14:04:41;;;;;;;6.23;5.63;;;18.60;99.90;;;;;;6221138;23;20176;-94